Time;durP1;ratioP1;P1;durP2;ratioP2;P2;SDS_P1;SDS_P2;PMS_P1;PMS_P2;Temp;Humidity;BMP_temperature;BMP_pressure;BME280_temperature;BME280_humidity;BME280_pressure;Samples;Min_cycle;Max_cycle;Signal;HPM_P1;HPM_P2
2024/04/11 00:00:04;;;;;;;;;;;;;;;10.41;59.84;102901.34;107123;1274;22460;-53
2024/04/11 00:02:31;;;;;;;;;;;;;;;10.42;59.73;102900.97;107046;1274;22532;-49
2024/04/11 00:04:58;;;;;;;;;;;;;;;10.44;59.90;102906.77;107072;1275;23323;-51
2024/04/11 00:07:25;;;;;;;;;;;;;;;10.46;59.79;102910.98;107018;1273;22644;-48
2024/04/11 00:09:52;;;;;;;;;;;;;;;10.47;59.80;102910.60;107037;1274;25224;-50
2024/04/11 00:12:19;;;;;;;;;;;;;;;10.49;59.82;102908.96;106933;1274;25882;-48
2024/04/11 00:14:46;;;;;;;;;;;;;;;10.50;59.70;102902.06;106881;1273;22439;-46
2024/04/11 00:17:13;;;;;;;;;;;;;;;10.51;59.77;102899.19;106925;1273;22470;-46
2024/04/11 00:19:40;;;;;;;;;;;;;;;10.52;59.80;102893.16;107071;1275;22637;-47
2024/04/11 00:22:08;;;;;;;;;;;;;;;10.53;59.84;102895.42;106969;1274;22450;-50
2024/04/11 00:24:35;;;;;;;;;;;;;;;10.55;59.80;102891.15;107101;1274;22497;-49
2024/04/11 00:27:02;;;;;;;;;;;;;;;10.56;59.87;102889.34;107013;1272;23101;-50
2024/04/11 00:29:29;;;;;;;;;;;;;;;10.58;59.92;102883.66;106952;1274;22512;-48
2024/04/11 00:31:56;;;;;;;;;;;;;;;10.59;59.94;102873.17;106830;1274;23828;-51
2024/04/11 00:34:23;;;;;;;;;;;;;;;10.61;59.94;102868.73;106918;1274;22441;-50
2024/04/11 00:36:53;;;;;;;;;;;;;;;10.62;59.96;102873.63;107081;1275;22576;-49
2024/04/11 00:39:22;;;;;;;;;;;;;;;10.65;59.83;102872.52;106922;1274;22428;-48
2024/04/11 00:41:50;;;;;;;;;;;;;;;10.66;60.08;102873.55;107004;1270;22527;-48
2024/04/11 00:44:17;;;;;;;;;;;;;;;10.67;59.93;102870.85;106965;1274;22546;-52
2024/04/11 00:46:45;;;;;;;;;;;;;;;10.69;59.80;102871.88;107200;1274;22443;-50
2024/04/11 00:49:13;;;;;;;;;;;;;;;10.71;59.91;102874.30;107072;1274;22646;-52
2024/04/11 00:51:42;;;;;;;;;;;;;;;10.73;59.81;102878.51;106942;1273;24266;-50
2024/04/11 00:54:09;;;;;;;;;;;;;;;10.75;59.87;102883.77;106960;1273;22505;-49
2024/04/11 00:56:36;;;;;;;;;;;;;;;10.77;59.95;102887.60;106979;1274;25456;-48
2024/04/11 00:59:03;;;;;;;;;;;;;;;10.79;59.78;102892.34;106858;1274;22447;-50
2024/04/11 01:01:31;;;;;;;;;;;;;;;10.80;59.74;102887.19;107035;1274;25338;-52
2024/04/11 01:04:01;;;;;;;;;;;;;;;10.82;59.58;102880.95;106946;1273;22602;-49
2024/04/11 01:06:40;;;;;;;;;;;;;;;10.83;59.63;102876.84;106989;1273;23901;-50
2024/04/11 01:09:07;;;;;;;;;;;;;;;10.85;59.61;102881.93;106948;1273;22514;-50
2024/04/11 01:11:33;;;;;;;;;;;;;;;10.86;59.57;102882.80;107039;1270;22963;-49
2024/04/11 01:14:00;;;;;;;;;;;;;;;10.87;59.51;102880.96;107000;1274;22592;-44
2024/04/11 01:16:28;;;;;;;;;;;;;;;10.89;59.56;102881.83;106990;1274;22796;-46
2024/04/11 01:18:56;;;;;;;;;;;;;;;10.90;59.55;102881.96;107028;1273;22630;-45
2024/04/11 01:21:23;;;;;;;;;;;;;;;10.91;59.62;102877.53;107036;1273;24097;-45
2024/04/11 01:23:50;;;;;;;;;;;;;;;10.93;59.68;102878.55;106947;1274;25018;-47
2024/04/11 01:26:17;;;;;;;;;;;;;;;10.93;59.62;102875.70;106837;1268;25384;-48
2024/04/11 01:28:45;;;;;;;;;;;;;;;10.95;59.63;102867.71;106962;1274;22459;-47
2024/04/11 01:31:12;;;;;;;;;;;;;;;10.95;59.64;102855.30;107060;1274;25473;-46
2024/04/11 01:33:41;;;;;;;;;;;;;;;10.96;59.65;102855.98;106999;1275;24327;-47
2024/04/11 01:36:08;;;;;;;;;;;;;;;10.98;59.79;102851.02;106978;1273;22659;-48
2024/04/11 01:38:35;;;;;;;;;;;;;;;10.97;59.67;102844.99;106966;1274;22498;-49
2024/04/11 01:41:02;;;;;;;;;;;;;;;10.98;59.71;102844.27;107121;1274;22495;-50
2024/04/11 01:43:29;;;;;;;;;;;;;;;10.99;59.76;102849.55;107142;1274;22545;-45
2024/04/11 01:45:56;;;;;;;;;;;;;;;11.00;59.83;102842.28;106927;1271;22437;-46
2024/04/11 01:48:23;;;;;;;;;;;;;;;11.00;59.86;102839.08;106888;1273;22595;-45
2024/04/11 01:50:52;;;;;;;;;;;;;;;11.01;59.85;102840.99;106911;1274;22505;-44
2024/04/11 01:53:19;;;;;;;;;;;;;;;11.02;59.87;102837.80;107028;1274;24199;-45
2024/04/11 01:55:47;;;;;;;;;;;;;;;11.03;59.90;102835.48;107045;1275;22499;-51
2024/04/11 01:58:15;;;;;;;;;;;;;;;11.03;59.81;102836.86;106964;1275;24221;-44
2024/04/11 02:00:43;;;;;;;;;;;;;;;11.05;59.82;102832.76;106961;1274;25415;-49
2024/04/11 02:03:11;;;;;;;;;;;;;;;11.06;59.78;102835.20;106947;1274;22741;-46
2024/04/11 02:05:38;;;;;;;;;;;;;;;11.07;59.83;102838.91;106761;1273;311949;-49
2024/04/11 02:08:06;;;;;;;;;;;;;;;11.07;59.88;102845.79;106878;1274;24198;-49
2024/04/11 02:10:33;;;;;;;;;;;;;;;11.07;59.88;102842.77;106894;1274;22823;-46
2024/04/11 02:13:00;;;;;;;;;;;;;;;11.08;59.85;102844.54;107079;1274;22507;-44
2024/04/11 02:15:28;;;;;;;;;;;;;;;11.08;59.89;102846.48;106924;1275;22646;-45
2024/04/11 02:17:55;;;;;;;;;;;;;;;11.08;60.02;102849.30;106876;1271;24181;-45
2024/04/11 02:20:24;;;;;;;;;;;;;;;11.09;60.06;102845.20;107216;1274;22515;-44
2024/04/11 02:22:53;;;;;;;;;;;;;;;11.10;60.00;102845.54;107091;1274;24085;-45
2024/04/11 02:25:21;;;;;;;;;;;;;;;11.11;60.11;102844.83;106910;1274;22439;-45
2024/04/11 02:27:48;;;;;;;;;;;;;;;11.11;60.07;102840.57;107084;1274;22438;-44
2024/04/11 02:30:15;;;;;;;;;;;;;;;11.11;59.96;102835.60;107044;1272;25288;-45
2024/04/11 02:32:42;;;;;;;;;;;;;;;11.13;60.09;102841.95;107106;1275;24172;-45
2024/04/11 02:35:11;;;;;;;;;;;;;;;11.13;60.10;102845.13;107222;1274;22467;-44
2024/04/11 02:37:39;;;;;;;;;;;;;;;11.13;60.10;102845.48;107152;1274;24232;-45
2024/04/11 02:40:09;;;;;;;;;;;;;;;11.14;60.03;102844.39;106976;1274;22593;-46
2024/04/11 02:42:39;;;;;;;;;;;;;;;11.14;60.04;102844.73;107031;1275;22515;-46
2024/04/11 02:45:12;;;;;;;;;;;;;;;11.14;60.01;102849.51;106910;1273;22528;-45
2024/04/11 02:47:39;;;;;;;;;;;;;;;11.14;59.99;102848.63;107144;1274;22457;-44
2024/04/11 02:50:06;;;;;;;;;;;;;;;11.15;60.00;102848.27;107117;1274;22433;-45
2024/04/11 02:52:34;;;;;;;;;;;;;;;11.15;60.07;102845.94;106932;1274;25345;-45
2024/04/11 02:55:01;;;;;;;;;;;;;;;11.16;60.01;102847.52;106924;1274;25393;-44
2024/04/11 02:57:30;;;;;;;;;;;;;;;11.16;59.96;102848.02;106895;1274;25328;-45
2024/04/11 02:59:57;;;;;;;;;;;;;;;11.17;60.03;102845.89;106962;1274;22472;-44
2024/04/11 03:02:28;;;;;;;;;;;;;;;11.18;60.14;102849.59;107021;1274;25368;-45
2024/04/11 03:04:56;;;;;;;;;;;;;;;11.18;60.06;102850.10;107318;1274;22951;-45
2024/04/11 03:07:23;;;;;;;;;;;;;;;11.18;60.03;102847.64;107100;1273;24111;-44
2024/04/11 03:09:51;;;;;;;;;;;;;;;11.18;60.00;102844.26;107042;1274;25706;-45
2024/04/11 03:12:17;;;;;;;;;;;;;;;11.18;60.08;102841.77;107058;1274;22773;-46
2024/04/11 03:14:47;;;;;;;;;;;;;;;11.18;60.03;102839.66;107081;1274;22514;-44
2024/04/11 03:17:15;;;;;;;;;;;;;;;11.19;60.14;102844.59;107023;1274;22415;-45
2024/04/11 03:19:41;;;;;;;;;;;;;;;11.20;60.24;102847.23;106911;1271;22453;-45
2024/04/11 03:22:08;;;;;;;;;;;;;;;11.20;60.13;102846.49;106912;1274;23761;-44
2024/04/11 03:24:35;;;;;;;;;;;;;;;11.20;60.10;102845.63;106883;1273;24144;-45
2024/04/11 03:27:02;;;;;;;;;;;;;;;11.20;60.09;102844.73;106973;1274;24165;-46
2024/04/11 03:29:29;;;;;;;;;;;;;;;11.21;60.18;102851.98;107140;1274;24169;-47
2024/04/11 03:31:56;;;;;;;;;;;;;;;11.22;60.26;102853.73;107010;1273;25346;-45
2024/04/11 03:34:23;;;;;;;;;;;;;;;11.23;60.25;102851.75;106908;1275;22445;-44
2024/04/11 03:36:50;;;;;;;;;;;;;;;11.23;60.26;102844.85;107050;1274;22445;-45
2024/04/11 03:39:20;;;;;;;;;;;;;;;11.24;60.18;102837.57;107025;1275;25408;-49
2024/04/11 03:41:52;;;;;;;;;;;;;;;11.25;60.22;102840.34;107023;1273;25362;-45
2024/04/11 03:44:19;;;;;;;;;;;;;;;11.25;60.32;102841.41;107028;1274;23886;-45
2024/04/11 03:46:47;;;;;;;;;;;;;;;11.26;60.23;102838.55;106928;1273;25300;-45
2024/04/11 03:49:14;;;;;;;;;;;;;;;11.26;60.33;102831.81;106958;1275;22505;-46
2024/04/11 03:51:41;;;;;;;;;;;;;;;11.27;60.45;102830.57;106906;1274;22432;-44
2024/04/11 03:54:11;;;;;;;;;;;;;;;11.28;60.53;102827.20;106895;1275;22645;-44
2024/04/11 03:56:39;;;;;;;;;;;;;;;11.28;60.57;102828.77;107090;1275;22531;-44
2024/04/11 03:59:06;;;;;;;;;;;;;;;11.28;60.61;102821.52;107068;1274;22519;-44
2024/04/11 04:01:33;;;;;;;;;;;;;;;11.28;60.57;102814.98;106954;1274;22752;-45
2024/04/11 04:04:03;;;;;;;;;;;;;;;11.28;60.55;102817.27;106931;1274;22498;-46
2024/04/11 04:06:33;;;;;;;;;;;;;;;11.29;60.57;102817.08;107275;1275;22433;-44
2024/04/11 04:09:07;;;;;;;;;;;;;;;11.28;60.61;102812.85;107017;1274;24175;-45
2024/04/11 04:11:38;;;;;;;;;;;;;;;11.28;60.80;102815.86;106895;1274;22619;-46
2024/04/11 04:14:14;;;;;;;;;;;;;;;11.28;60.88;102818.86;106878;1275;22494;-45
2024/04/11 04:16:41;;;;;;;;;;;;;;;11.28;60.85;102818.34;107048;1273;24241;-46
2024/04/11 04:19:09;;;;;;;;;;;;;;;11.28;61.08;102813.73;106983;1274;22495;-47
2024/04/11 04:21:36;;;;;;;;;;;;;;;11.28;61.18;102810.71;107149;1274;24399;-47
2024/04/11 04:24:05;;;;;;;;;;;;;;;11.28;61.13;102808.23;107016;1274;22499;-44
2024/04/11 04:26:33;;;;;;;;;;;;;;;11.28;61.17;102803.29;106948;1274;22543;-44
2024/04/11 04:29:00;;;;;;;;;;;;;;;11.28;61.23;102793.56;106888;1275;24139;-46
2024/04/11 04:31:30;;;;;;;;;;;;;;;11.27;61.33;102791.45;107031;1274;22588;-45
2024/04/11 04:34:01;;;;;;;;;;;;;;;11.27;61.40;102792.86;107127;1274;24568;-44
2024/04/11 04:36:33;;;;;;;;;;;;;;;11.27;61.53;102796.06;106990;1275;25349;-44
2024/04/11 04:39:04;;;;;;;;;;;;;;;11.27;61.58;102796.24;107100;1273;24379;-46
2024/04/11 04:41:32;;;;;;;;;;;;;;;11.26;61.65;102794.66;107075;1270;22467;-46
2024/04/11 04:44:00;;;;;;;;;;;;;;;11.25;61.75;102795.02;107005;1272;22634;-45
2024/04/11 04:46:32;;;;;;;;;;;;;;;11.26;61.78;102795.05;107066;1273;22734;-45
2024/04/11 04:49:00;;;;;;;;;;;;;;;11.25;62.05;102795.75;107039;1273;22557;-46
2024/04/11 04:51:27;;;;;;;;;;;;;;;11.24;62.10;102795.08;106989;1273;22425;-46
2024/04/11 04:53:54;;;;;;;;;;;;;;;11.23;62.18;102797.40;107103;1275;22500;-47
2024/04/11 04:56:22;;;;;;;;;;;;;;;11.23;62.24;102792.46;106969;1275;22440;-45
2024/04/11 04:58:51;;;;;;;;;;;;;;;11.23;62.39;102797.23;107053;1274;22462;-45
2024/04/11 05:01:18;;;;;;;;;;;;;;;11.23;62.44;102796.54;106931;1274;23873;-48
2024/04/11 05:03:45;;;;;;;;;;;;;;;11.22;62.66;102799.21;106995;1275;25389;-45
2024/04/11 05:06:13;;;;;;;;;;;;;;;11.22;62.61;102799.04;106970;1274;22536;-47
2024/04/11 05:08:47;;;;;;;;;;;;;;;11.21;62.83;102799.77;107052;1273;22611;-47
2024/04/11 05:11:15;;;;;;;;;;;;;;;11.21;62.93;102805.08;107067;1274;22447;-48
2024/04/11 05:13:42;;;;;;;;;;;;;;;11.21;63.07;102810.56;107058;1275;22412;-50
2024/04/11 05:16:18;;;;;;;;;;;;;;;11.21;63.27;102810.92;106886;1266;25221;-47
2024/04/11 05:18:46;;;;;;;;;;;;;;;11.21;63.33;102808.09;106962;1274;22484;-49
2024/04/11 05:21:19;;;;;;;;;;;;;;;11.21;63.39;102820.13;106879;1273;22451;-47
2024/04/11 05:23:46;;;;;;;;;;;;;;;11.21;63.57;102829.85;106939;1274;22555;-51
2024/04/11 05:26:14;;;;;;;;;;;;;;;11.21;63.63;102834.98;106997;1274;22449;-50
2024/04/11 05:28:45;;;;;;;;;;;;;;;11.20;63.71;102843.84;107139;1274;22638;-47
2024/04/11 05:31:16;;;;;;;;;;;;;;;11.21;63.83;102847.73;106886;1275;24139;-44
2024/04/11 05:33:44;;;;;;;;;;;;;;;11.22;63.91;102850.20;106985;1274;22527;-45
2024/04/11 05:36:17;;;;;;;;;;;;;;;11.22;64.09;102854.44;107057;1274;22442;-45
2024/04/11 05:38:46;;;;;;;;;;;;;;;11.22;64.00;102847.54;107067;1274;22612;-44
2024/04/11 05:41:14;;;;;;;;;;;;;;;11.22;64.07;102853.54;107128;1274;22498;-46
2024/04/11 05:43:44;;;;;;;;;;;;;;;11.22;64.03;102859.57;106969;1274;22640;-45
2024/04/11 05:46:12;;;;;;;;;;;;;;;11.23;64.26;102864.30;107034;1274;25387;-47
2024/04/11 05:48:41;;;;;;;;;;;;;;;11.24;64.28;102865.88;107087;1274;25836;-50
2024/04/11 05:51:10;;;;;;;;;;;;;;;11.25;64.49;102861.60;107051;1275;22510;-46
2024/04/11 05:53:37;;;;;;;;;;;;;;;11.26;64.61;102863.17;107020;1274;25352;-46
2024/04/11 05:56:05;;;;;;;;;;;;;;;11.26;64.87;102861.92;106989;1274;22528;-45
2024/04/11 05:58:32;;;;;;;;;;;;;;;11.27;64.73;102857.84;107089;1274;22449;-45
2024/04/11 06:01:01;;;;;;;;;;;;;;;11.28;65.05;102863.46;107118;1274;22467;-47
2024/04/11 06:03:30;;;;;;;;;;;;;;;11.28;65.33;102861.86;106933;1274;24171;-44
2024/04/11 06:05:57;;;;;;;;;;;;;;;11.30;65.50;102869.26;106940;1268;25363;-45
2024/04/11 06:08:25;;;;;;;;;;;;;;;11.32;65.81;102872.21;106944;1275;24195;-52
2024/04/11 06:10:52;;;;;;;;;;;;;;;11.33;65.82;102878.92;107034;1273;25214;-50
2024/04/11 06:13:20;;;;;;;;;;;;;;;11.33;65.84;102874.65;106944;1275;22566;-53
2024/04/11 06:15:50;;;;;;;;;;;;;;;11.35;65.91;102881.86;106907;1274;22492;-52
2024/04/11 06:18:18;;;;;;;;;;;;;;;11.36;65.88;102882.00;107069;1274;22806;-52
2024/04/11 06:20:45;;;;;;;;;;;;;;;11.36;66.05;102885.36;107012;1275;22539;-48
2024/04/11 06:23:17;;;;;;;;;;;;;;;11.37;66.02;102886.05;106922;1274;25386;-51
2024/04/11 06:25:45;;;;;;;;;;;;;;;11.38;66.11;102886.91;107092;1274;22510;-52
2024/04/11 06:28:14;;;;;;;;;;;;;;;11.39;66.36;102889.19;107154;1273;22595;-51
2024/04/11 06:30:47;;;;;;;;;;;;;;;11.39;66.58;102892.38;106946;1275;22508;-52
2024/04/11 06:33:16;;;;;;;;;;;;;;;11.41;67.15;102895.15;106963;1269;22582;-52
2024/04/11 06:35:51;;;;;;;;;;;;;;;11.41;67.59;102899.76;106971;1275;25395;-49
2024/04/11 06:38:21;;;;;;;;;;;;;;;11.42;68.11;102898.67;107062;1275;22449;-52
2024/04/11 06:40:48;;;;;;;;;;;;;;;11.41;68.57;102897.45;107032;1275;24139;-52
2024/04/11 06:43:16;;;;;;;;;;;;;;;11.41;69.11;102905.42;106960;1273;24343;-51
2024/04/11 06:45:43;;;;;;;;;;;;;;;11.41;69.77;102907.90;106986;1273;24331;-52
2024/04/11 06:48:10;;;;;;;;;;;;;;;11.41;70.43;102910.21;106991;1275;24182;-49
2024/04/11 06:50:38;;;;;;;;;;;;;;;11.40;70.83;102912.70;106876;1274;22557;-49
2024/04/11 06:53:08;;;;;;;;;;;;;;;11.39;71.05;102913.98;107035;1273;25489;-49
2024/04/11 06:55:34;;;;;;;;;;;;;;;11.38;71.39;102909.92;107221;1275;24201;-49
2024/04/11 06:58:02;;;;;;;;;;;;;;;11.37;71.42;102909.95;106944;1272;25895;-50
2024/04/11 07:00:41;;;;;;;;;;;;;;;11.36;71.71;102906.45;106891;1275;22455;-49
2024/04/11 07:03:16;;;;;;;;;;;;;;;11.34;71.89;102896.73;106930;1274;22511;-51
2024/04/11 07:05:47;;;;;;;;;;;;;;;11.33;72.15;102900.87;106962;1273;22662;-51
2024/04/11 07:08:14;;;;;;;;;;;;;;;11.31;72.23;102898.44;106887;1274;22491;-50
2024/04/11 07:10:46;;;;;;;;;;;;;;;11.30;72.38;102902.70;106967;1275;24259;-52
2024/04/11 07:13:13;;;;;;;;;;;;;;;11.29;72.72;102909.27;106872;1275;25210;-52
2024/04/11 07:15:42;;;;;;;;;;;;;;;11.28;72.96;102914.41;106901;1275;25201;-49
2024/04/11 07:18:14;;;;;;;;;;;;;;;11.29;73.17;102923.09;106974;1275;22624;-48
2024/04/11 07:20:50;;;;;;;;;;;;;;;11.30;73.44;102929.77;107206;1274;25349;-52
2024/04/11 07:23:20;;;;;;;;;;;;;;;11.32;73.88;102938.05;107003;1274;22693;-52
2024/04/11 07:25:50;;;;;;;;;;;;;;;11.35;74.25;102942.23;106935;1275;22488;-54
2024/04/11 07:28:20;;;;;;;;;;;;;;;11.38;74.75;102949.58;106999;1274;24327;-54
2024/04/11 07:30:49;;;;;;;;;;;;;;;11.43;75.13;102953.52;107021;1275;25388;-52
2024/04/11 07:33:16;;;;;;;;;;;;;;;11.47;75.45;102951.98;107002;1275;22610;-54
2024/04/11 07:35:44;;;;;;;;;;;;;;;11.51;75.53;102951.19;107067;1274;23477;-50
2024/04/11 07:38:13;;;;;;;;;;;;;;;11.54;75.71;102949.86;106972;1275;22522;-51
2024/04/11 07:40:54;;;;;;;;;;;;;;;11.58;75.69;102950.65;107131;1275;25195;-53
2024/04/11 07:43:27;;;;;;;;;;;;;;;11.61;76.16;102948.07;107142;1275;25337;-50
2024/04/11 07:45:54;;;;;;;;;;;;;;;11.63;76.19;102946.08;107018;1274;25915;-50
2024/04/11 07:48:23;;;;;;;;;;;;;;;11.63;76.50;102950.52;106925;1275;22417;-51
2024/04/11 07:50:50;;;;;;;;;;;;;;;11.63;76.78;102960.42;107010;1274;22427;-51
2024/04/11 07:53:18;;;;;;;;;;;;;;;11.62;76.89;102968.22;106899;1275;24424;-52
2024/04/11 07:55:49;;;;;;;;;;;;;;;11.63;77.18;102965.02;106935;1272;25339;-51
2024/04/11 07:58:19;;;;;;;;;;;;;;;11.62;77.47;102962.40;106858;1275;22688;-52
2024/04/11 08:00:50;;;;;;;;;;;;;;;11.61;77.54;102962.05;107077;1275;22492;-51
2024/04/11 08:03:17;;;;;;;;;;;;;;;11.63;78.06;102966.25;107013;1274;24218;-48
2024/04/11 08:05:44;;;;;;;;;;;;;;;11.65;78.30;102970.62;107061;1274;22727;-50
2024/04/11 08:08:12;;;;;;;;;;;;;;;11.67;78.56;102974.83;107026;1274;22430;-49
2024/04/11 08:10:39;;;;;;;;;;;;;;;11.69;78.78;102976.71;106958;1275;24174;-53
2024/04/11 08:13:08;;;;;;;;;;;;;;;11.71;78.84;102977.91;106861;1275;24133;-51
2024/04/11 08:15:35;;;;;;;;;;;;;;;11.73;78.99;102985.47;107000;1274;22441;-50
2024/04/11 08:18:04;;;;;;;;;;;;;;;11.75;79.26;102992.16;106929;1275;22492;-48
2024/04/11 08:20:32;;;;;;;;;;;;;;;11.76;79.14;102997.80;107221;1275;22843;-50
2024/04/11 08:22:59;;;;;;;;;;;;;;;11.77;79.26;102993.15;107119;1275;22454;-49
2024/04/11 08:25:31;;;;;;;;;;;;;;;11.78;79.45;102994.37;106880;1274;25296;-51
2024/04/11 08:28:00;;;;;;;;;;;;;;;11.79;79.53;102996.83;106920;1275;22790;-49
2024/04/11 08:30:27;;;;;;;;;;;;;;;11.82;79.62;102991.27;106872;1267;24360;-52
2024/04/11 08:32:54;;;;;;;;;;;;;;;11.86;79.96;102999.14;106863;1272;25240;-51
2024/04/11 08:35:22;;;;;;;;;;;;;;;11.90;79.96;103003.83;107010;1272;24379;-52
2024/04/11 08:37:51;;;;;;;;;;;;;;;11.94;80.07;103005.85;106864;1272;24180;-52
2024/04/11 08:40:19;;;;;;;;;;;;;;;11.97;79.91;103005.23;106935;1275;24194;-52
2024/04/11 08:42:48;;;;;;;;;;;;;;;11.99;79.97;103012.45;107026;1272;22639;-53
2024/04/11 08:45:16;;;;;;;;;;;;;;;11.99;79.78;103010.84;106936;1275;22762;-49
2024/04/11 08:47:46;;;;;;;;;;;;;;;11.97;79.55;103016.74;107057;1269;22499;-48
2024/04/11 08:50:13;;;;;;;;;;;;;;;11.96;79.56;103011.27;107215;1275;22903;-48
2024/04/11 08:52:43;;;;;;;;;;;;;;;11.97;79.58;103013.73;106986;1268;25227;-49
2024/04/11 08:55:12;;;;;;;;;;;;;;;11.99;79.83;103015.64;106907;1269;22632;-48
2024/04/11 08:57:38;;;;;;;;;;;;;;;12.02;80.09;103018.21;106928;1270;22670;-49
2024/04/11 09:00:12;;;;;;;;;;;;;;;12.06;80.21;103016.32;106881;1275;22779;-50
2024/04/11 09:02:42;;;;;;;;;;;;;;;12.12;80.22;103014.02;106945;1274;22709;-49
2024/04/11 09:05:10;;;;;;;;;;;;;;;12.16;80.03;103016.73;106859;1274;22750;-50
2024/04/11 09:07:40;;;;;;;;;;;;;;;12.21;80.19;103022.45;106946;1275;22484;-50
2024/04/11 09:10:07;;;;;;;;;;;;;;;12.28;80.50;103026.51;106890;1275;23039;-48
2024/04/11 09:12:34;;;;;;;;;;;;;;;12.35;80.52;103024.88;106910;1275;24219;-52
2024/04/11 09:15:10;;;;;;;;;;;;;;;12.41;80.20;103029.66;106859;1275;24066;-52
2024/04/11 09:17:40;;;;;;;;;;;;;;;12.45;80.12;103033.64;107082;1275;24293;-49
2024/04/11 09:20:12;;;;;;;;;;;;;;;12.48;79.97;103042.04;106996;1275;25170;-50
2024/04/11 09:22:50;;;;;;;;;;;;;;;12.52;80.17;103049.73;106958;1274;22520;-49
2024/04/11 09:25:29;;;;;;;;;;;;;;;12.54;80.02;103053.23;106907;1269;24210;-49
2024/04/11 09:28:00;;;;;;;;;;;;;;;12.57;80.02;103054.05;107064;1275;22620;-52
2024/04/11 09:30:29;;;;;;;;;;;;;;;12.57;80.19;103051.17;106924;1275;25268;-52
2024/04/11 09:32:59;;;;;;;;;;;;;;;12.57;80.06;103050.48;107122;1275;25422;-50
2024/04/11 09:35:26;;;;;;;;;;;;;;;12.59;80.26;103049.55;107192;1275;24167;-53
2024/04/11 09:37:54;;;;;;;;;;;;;;;12.60;80.51;103048.63;107166;1275;25351;-50
2024/04/11 09:40:26;;;;;;;;;;;;;;;12.63;80.66;103055.98;107146;1272;24869;-51
2024/04/11 09:43:03;;;;;;;;;;;;;;;12.66;81.05;103059.43;107137;1267;22947;-49
2024/04/11 09:45:35;;;;;;;;;;;;;;;12.69;80.93;103058.27;106851;1275;22756;-49
2024/04/11 09:48:03;;;;;;;;;;;;;;;12.72;80.86;103056.25;106878;1275;24187;-53
2024/04/11 09:50:30;;;;;;;;;;;;;;;12.76;80.83;103060.02;106878;1275;24454;-53
2024/04/11 09:52:57;;;;;;;;;;;;;;;12.81;81.05;103065.20;106883;1274;22528;-53
2024/04/11 09:55:33;;;;;;;;;;;;;;;12.87;81.37;103071.73;106991;1275;22447;-48
2024/04/11 09:58:00;;;;;;;;;;;;;;;12.94;81.23;103072.77;106957;1275;22449;-52
2024/04/11 10:01:04;;;;;;;;;;;;;;;13.00;81.26;103074.19;106989;1271;24597;-52
2024/04/11 10:03:33;;;;;;;;;;;;;;;13.07;81.07;103073.09;106998;1273;22443;-52
2024/04/11 10:06:01;;;;;;;;;;;;;;;13.13;81.07;103075.54;107017;1271;25229;-53
2024/04/11 10:08:36;;;;;;;;;;;;;;;13.21;81.14;103073.19;106900;1267;22632;-53
2024/04/11 10:11:10;;;;;;;;;;;;;;;13.29;81.30;103068.14;107176;1267;25424;-52
2024/04/11 10:13:40;;;;;;;;;;;;;;;13.37;81.20;103072.33;107227;1275;25471;-52
2024/04/11 10:16:13;;;;;;;;;;;;;;;13.43;81.15;103079.08;106997;1275;22743;-53
2024/04/11 10:18:51;;;;;;;;;;;;;;;13.47;81.12;103083.20;106989;1275;22458;-49
2024/04/11 10:21:29;;;;;;;;;;;;;;;13.50;81.08;103092.86;107062;1275;24194;-49
2024/04/11 10:24:15;;;;;;;;;;;;;;;13.52;80.96;103098.33;106959;1273;22781;-50
2024/04/11 10:26:47;;;;;;;;;;;;;;;13.51;80.92;103097.97;106970;1255;25387;-52
2024/04/11 10:29:18;;;;;;;;;;;;;;;13.52;81.11;103097.79;106942;1275;22492;-49
2024/04/11 10:31:47;;;;;;;;;;;;;;;13.52;81.31;103106.46;106949;1275;22533;-48
2024/04/11 10:34:19;;;;;;;;;;;;;;;13.52;81.67;103108.23;107077;1275;24323;-49
2024/04/11 10:36:54;;;;;;;;;;;;;;;13.54;81.87;103107.98;107218;1275;22770;-49
2024/04/11 10:39:23;;;;;;;;;;;;;;;13.55;81.94;103113.66;106853;1275;22535;-50
2024/04/11 10:41:53;;;;;;;;;;;;;;;13.56;82.09;103112.57;106902;1275;25379;-50
2024/04/11 10:44:23;;;;;;;;;;;;;;;13.57;82.16;103108.81;106911;1275;22899;-49
2024/04/11 10:46:50;;;;;;;;;;;;;;;13.59;82.60;103113.20;106927;1275;22442;-52
2024/04/11 10:49:26;;;;;;;;;;;;;;;13.61;82.71;103120.41;106845;1275;25837;-52
2024/04/11 10:51:56;;;;;;;;;;;;;;;13.65;82.82;103128.45;106929;1275;22985;-51
2024/04/11 10:54:26;;;;;;;;;;;;;;;13.70;83.15;103133.42;106853;1275;25281;-52
2024/04/11 10:56:54;;;;;;;;;;;;;;;13.76;83.28;103125.93;106931;1275;25233;-51
2024/04/11 10:59:27;;;;;;;;;;;;;;;13.84;83.43;103120.36;106928;1275;22589;-53
2024/04/11 11:02:19;;;;;;;;;;;;;;;13.90;83.64;103118.90;106872;1273;22553;-52
2024/04/11 11:04:50;;;;;;;;;;;;;;;13.96;83.88;103120.98;107016;1275;24730;-53
2024/04/11 11:07:23;;;;;;;;;;;;;;;14.04;84.08;103122.16;106986;1275;23885;-52
2024/04/11 11:09:53;;;;;;;;;;;;;;;14.10;84.02;103119.61;107011;1275;23922;-49
2024/04/11 11:12:24;;;;;;;;;;;;;;;14.18;84.22;103123.24;106954;1275;25393;-49
2024/04/11 11:14:55;;;;;;;;;;;;;;;14.29;84.43;103131.40;106937;1275;24010;-51
2024/04/11 11:17:27;;;;;;;;;;;;;;;14.39;84.64;103129.98;107027;1275;22462;-49
2024/04/11 11:19:55;;;;;;;;;;;;;;;14.46;84.35;103128.11;106874;1275;25292;-49
2024/04/11 11:22:33;;;;;;;;;;;;;;;14.51;84.28;103128.83;106873;1275;22947;-50
2024/04/11 11:25:01;;;;;;;;;;;;;;;14.53;84.13;103129.81;106964;1270;22779;-49
2024/04/11 11:27:29;;;;;;;;;;;;;;;14.56;84.13;103127.77;106873;1273;22502;-50
2024/04/11 11:29:56;;;;;;;;;;;;;;;14.60;83.95;103124.64;106900;1275;25230;-49
2024/04/11 11:32:25;;;;;;;;;;;;;;;14.63;83.87;103124.16;106928;1275;22628;-51
2024/04/11 11:34:52;;;;;;;;;;;;;;;14.68;83.68;103120.77;106899;1275;24025;-50
2024/04/11 11:37:23;;;;;;;;;;;;;;;14.73;83.44;103123.23;106907;1275;24209;-49
2024/04/11 11:39:55;;;;;;;;;;;;;;;14.78;83.34;103122.48;106970;1275;22849;-52
2024/04/11 11:42:32;;;;;;;;;;;;;;;14.82;83.01;103122.71;107022;1274;24206;-50
2024/04/11 11:47:33;;;;;;;;;;;;;;;14.91;83.03;103117.23;106865;1275;24288;-50
2024/04/11 11:50:16;;;;;;;;;;;;;;;14.95;83.04;103117.27;106892;1275;23927;-51
2024/04/11 11:52:44;;;;;;;;;;;;;;;14.99;83.12;103125.11;107003;1271;22479;-51
2024/04/11 11:55:19;;;;;;;;;;;;;;;15.06;83.37;103128.58;106896;1257;22486;-53
2024/04/11 11:57:54;;;;;;;;;;;;;;;15.10;83.11;103125.92;106864;1275;23878;-51
2024/04/11 12:00:32;;;;;;;;;;;;;;;15.14;82.83;103123.78;106841;1275;22650;-53
2024/04/11 12:03:11;;;;;;;;;;;;;;;15.19;82.47;103121.12;107030;1275;22540;-52
2024/04/11 12:05:44;;;;;;;;;;;;;;;15.25;82.51;103121.41;107028;1275;22520;-53
2024/04/11 12:08:13;;;;;;;;;;;;;;;15.29;82.23;103119.61;106920;1275;24263;-52
2024/04/11 12:13:34;;;;;;;;;;;;;;;15.43;82.26;103129.25;106920;1275;25927;-53
2024/04/11 12:16:03;;;;;;;;;;;;;;;15.48;81.99;103120.30;107046;1275;22504;-49
2024/04/11 12:18:30;;;;;;;;;;;;;;;15.53;82.11;103121.89;106924;1275;24167;-50
2024/04/11 12:20:57;;;;;;;;;;;;;;;15.57;81.96;103123.83;106908;1273;25875;-50
2024/04/11 12:23:27;;;;;;;;;;;;;;;15.63;81.72;103125.58;106867;1275;22447;-53
2024/04/11 12:25:58;;;;;;;;;;;;;;;15.66;81.57;103132.76;106959;1273;23872;-53
2024/04/11 12:28:25;;;;;;;;;;;;;;;15.68;81.31;103133.03;106890;1275;25194;-52
2024/04/11 12:31:07;;;;;;;;;;;;;;;15.68;81.23;103137.65;107171;1275;22478;-52
2024/04/11 12:33:43;;;;;;;;;;;;;;;15.67;81.01;103133.05;106982;1275;22495;-49
2024/04/11 12:39:12;;;;;;;;;;;;;;;15.66;81.15;103134.18;106867;1275;25360;-50
2024/04/11 12:41:40;;;;;;;;;;;;;;;15.66;81.27;103141.85;106806;1275;22629;-51
2024/04/11 12:44:13;;;;;;;;;;;;;;;15.67;81.36;103145.89;106975;1275;22436;-49